AirNav   Air Wisconsin pilot careers
 
 981 users online  

6G8 Shamrock Field Airport
Brooklyn, Michigan, USA

GOING TO BROOKLYN?


FAA INFORMATION EFFECTIVE 04 JANUARY 2018

Location

FAA Identifier: 6G8
Lat/Long: 42-05-42.1480N / 084-14-26.8120W
42-05.702467N / 084-14.446867W
42.0950411 / -84.2407811
(estimated)
Elevation: 995 ft. / 303 m (estimated)
Variation: 05W (1985)
From city: 1 mile SE of BROOKLYN, MI
Time zone: UTC -5 (UTC -4 during Daylight Saving Time)
Zip code: 49230

Airport Operations

Airport use: Open to the public
Activation date: 12/1975
Control tower: no
ARTCC: CLEVELAND CENTER
FSS: LANSING FLIGHT SERVICE STATION
NOTAMs facility: LAN (NOTAM-D service available)
Attendance: MAY-NOV IREG
DEC-APR ARPT CLOSED
Pattern altitude: 1995 ft. MSL
Wind indicator: lighted
Segmented circle: yes
Lights: ACTVT LIRL RY 01/19 - CTAF.
Landing fee: yes, PARKING/OVERNIGHT FEE.

Airport Communications

CTAF: 122.9
WX ASOS at JXN (14 nm NW): PHONE 517-768-7506
WX ASOS at ADG (15 nm SE): 118.375 (517-265-9089)
WX AWOS-3 at JYM (19 nm SW): 121.025 (517-437-5638)

Nearby radio navigation aids

VOR radial/distance  VOR name  Freq  Var
JXNr140/13.8JACKSON VOR/DME109.6005W
LFDr090/23.4LITCHFIELD VOR/DME111.2005W
SVMr240/34.3SALEM VORTAC114.3003W
CRLr278/35.0CARLETON VOR/DME115.7003W
DXOr266/39.5DETROIT VOR/DME113.4006W

 
NDB name  Hdg/Dist  Freq  Var  ID
JAKSO162/14.521205WJX .--- -..-
ADRIAN338/15.327806WADG .- -.. --.
TECUMSEH289/16.223906WTCU - -.-. ..-

Airport Services

Fuel available: 100LL
AVAILABLE WITH PRIOR ARRANGEMENT.
Parking: hangars and tiedowns

Runway Information

Runway 1/19

Dimensions: 2822 x 100 ft. / 860 x 30 m
Surface: turf, in fair condition
Runway edge lights: low intensity
LIRL OUT OF SERVICE INDEFINITELY.
Runway edge markings: 01/19 MKD WITH 3 FT YELLOW CONES; DSPLCD THLD MKD WITH 3 CONES EACH SIDE.
RUNWAY 1  RUNWAY 19
Latitude: 42-05.475167N42-05.929333N
Longitude: 084-14.500500W084-14.393000W
Elevation: 995.0 ft.995.0 ft.
Traffic pattern: rightleft
Displaced threshold: no613 ft.
Obstructions: 57 ft. tree, 804 ft. from runway, 65 ft. left of centerline, 14:1 slope to clear105 ft. pline, marked, 1494 ft. from runway, 14:1 slope to clear
APCH RATIO 20:1 AT DSPLCD THLD.

Airport Ownership and Management from official FAA records

Ownership: Privately-owned
Owner: ELLA ATKINS & DEANO SMITH
9237 WAMPLERS LAKE RD
BROOKLYN, MI 49230
Phone 517-592-6253
Manager: ELLA ATKINS
9237 WAMPLERS LAKE RD
BROOKLYN, MI 49230
Phone 517-592-6253

Airport Operational Statistics

Aircraft based on the field: 2
Single engine airplanes: 2
    
Aircraft operations: avg 46/month *
91% transient general aviation
9% local general aviation
* for 12-month period ending 31 December 2014

Additional Remarks

105 FT UNLIGHTED PLINE AND TOWER, 1/4 MILE FM THLD, EXTDD L & R OF CNTRLN RY 19.
DEER ON & INVOF OF ARPT.

Instrument Procedures

There are no published instrument procedures at 6G8.

Some nearby airports with instrument procedures:

KJXN - Jackson County Airport-Reynolds Field (14 nm NW)
3TE - Al Meyers Airport (14 nm E)
KADG - Lenawee County Airport (15 nm SE)
KJYM - Hillsdale Municipal Airport (19 nm SW)
KARB - Ann Arbor Municipal Airport (23 nm E)
 
Loc | Ops | Rwys | IFR | FBO | Links
Com | Nav | Svcs | Stats | Notes


 
Area around 6G8 (Shamrock Field Airport)
 
Road maps at: MapQuest Bing Google
 
Aerial photo
WARNING: Photo may not be current or correct
Aerial photo of 6G8 (Shamrock Field Airport)
Credit: M. Coleman - LocalHangar.com

Do you have a better or more recent aerial photo of Shamrock Field Airport that you would like to share? If so, please send us your photo.

 
Sectional chart

 
Airport distance calculator
Flying to Shamrock Field Airport? Find the distance to fly.

From to 6G8

Sunrise and sunset
Times for 21-Jan-2018
 Local
(UTC-5)
 Zulu
(UTC)
Morning civil twilight07:3012:30
Sunrise08:0013:00
Sunset17:3622:36
Evening civil twilight18:0723:07

Current date and time
Zulu (UTC)  21-Jan-2018 17:14:37
Local (UTC-5)  21-Jan-2018 12:14:37
 
METAR
KJXN 
14nm NW 
211656Z 10003KT 3SM BR FEW013 SCT020 OVC025 04/02 A3002 RMK AO2 SLP175 T00390022
KADG 
15nm SE 
211653Z AUTO 00000KT 1/4SM FG VV002 03/03 A3005 RMK AO2 SLP183 T00330033 TSNO
KJYM 
19nm SW 
211655Z AUTO 00000KT M1/4SM FG OVC003 03/02 A3001 RMK AO2
KARB 
24nm E 
734-668-7173
211653Z 00000KT 1/2SM FG VV003 03/03 A3004 RMK AO2 SLP180 T00280028
TAF
KJXN 
14nm NW 
211416Z 2114/2212 15005KT 1SM BR OVC002 FM211700 18005KT 3/4SM BR OVC002 FM220400 15005KT 1/2SM FG OVC002 FM221000 14006KT 1SM BR OVC007
NOTAMs
Click for the latest NOTAMs
NOTAMs are issued by the DoD/FAA and will open in a separate window not controlled by AirNav.

 

 
 

Would you like to see your business listed on this page?

 If your business provides an interesting product or service to pilots, flight crews, aircraft, or users of the Shamrock Field Airport, you should consider listing it here.  To start the listing process, click on the button below
 
Add a business
 

Other Pages about Shamrock Field Airport

Page from the Michigan Airport Directory (PDF)
 
Update a link
 
Copyright © AirNav, LLC. All rights reserved. Privacy Policy  Contact